Seabrook, NH (03874)

2:35 AM EST on January 21, 2017 (GMT -0500)
Hampton Falls River Estuary | | Change Station

Elev 33 ft 42.91 °N, 70.86 °W | Updated 22 seconds ago

Overcast
Overcast
36.9 °F
Feels Like 37 °F
N
1.3
Wind Variable Wind from SW
Gusts 2.5 mph

Today
High -- | Low -- °F
--% Chance of Precip.
Yesterday
High -- | Low -- °F
Precip. -- in
Pressure 29.89 in
Visibility 10.0 miles
Clouds Overcast 2500 ft
Windchill 37 °F
Dew Point 15 °F
Humidity 41%
Rainfall 0.00 in
Snow Depth Not available.
7:07 AM 4:42 PM
Last Quarter, 37% visible
METAR KPSM 210658Z 18002KT 10SM OVC025 02/M01 A2988 RMK AO2A SLP121 T00221006
Pressure 29.89 in
Visibility 10.0 miles
Clouds Overcast 2500 ft
Windchill 37 °F
Dew Point 15 °F
Humidity 41%
Rainfall 0.00 in
Snow Depth Not available.
7:07 AM 4:42 PM
Last Quarter, 37% visible
METAR KPSM 210658Z 18002KT 10SM OVC025 02/M01 A2988 RMK AO2A SLP121 T00221006

Get Your Daily Forecast Email!

Thanks for signing up!

Be on the lookout for a verification email in your inbox.

You'll start receiving the daily forecast at 8 AM.

×

10-Day Weather Forecast

Almanac

Astronomy

Jan. 21, 2017 Rise Set
Actual Time
Civil Twilight
Nautical Twilight
Astronomical Twilight
Moon
Length of Visible Light
Length of Day
Tomorrow will be .
, % of the Moon is Illuminated

Today's Extremes

State Highs State Lows

Community

WunderPhotos

Upload Photos

1,962,540 photos uploaded!

WunderBlog® & News

Nearby

Air Quality

  Air Quality AQ Index Pollutant
Not available.

Snow Depth

Station Depth Elevation

Earthquake Activity

City Distance Mag. Time & Date
Minimum magnitude displayed is 2.5.

Coastal Water Temperatures

Place Temperature

Stations

Nearby Weather Stations

Station Location Temp. Windchill Dew Point Humidity Wind Precip. Elev Updated Type
                   

Watches & Warnings

There are currently no watches in effect.